sensor_id;sensor_type;location;lat;lon;timestamp;pressure;altitude;pressure_sealevel;temperature;humidity
79671;BME280;69137;50.878;8.050;2024-02-16T00:00:00;97927.53;;;9.83;87.28
79671;BME280;69137;50.878;8.050;2024-02-16T00:02:26;97922.38;;;9.71;87.96
79671;BME280;69137;50.878;8.050;2024-02-16T00:04:51;97922.13;;;9.73;87.85
79671;BME280;69137;50.878;8.050;2024-02-16T00:07:17;97921.25;;;9.62;88.29
79671;BME280;69137;50.878;8.050;2024-02-16T00:09:42;97919.09;;;9.64;88.64
79671;BME280;69137;50.878;8.050;2024-02-16T00:12:07;97925.09;;;9.61;89.11
79671;BME280;69137;50.878;8.050;2024-02-16T00:14:33;97929.44;;;9.62;89.18
79671;BME280;69137;50.878;8.050;2024-02-16T00:16:58;97925.06;;;9.56;89.11
79671;BME280;69137;50.878;8.050;2024-02-16T00:19:24;97917.97;;;9.45;90.13
79671;BME280;69137;50.878;8.050;2024-02-16T00:21:50;97911.97;;;9.48;89.94
79671;BME280;69137;50.878;8.050;2024-02-16T00:24:16;97904.88;;;9.41;90.40
79671;BME280;69137;50.878;8.050;2024-02-16T00:26:41;97920.41;;;9.41;90.14
79671;BME280;69137;50.878;8.050;2024-02-16T00:29:08;97911.97;;;9.37;90.69
79671;BME280;69137;50.878;8.050;2024-02-16T00:31:33;97908.44;;;9.42;90.70
79671;BME280;69137;50.878;8.050;2024-02-16T00:33:59;97897.56;;;9.57;89.30
79671;BME280;69137;50.878;8.050;2024-02-16T00:36:26;97897.81;;;9.51;89.80
79671;BME280;69137;50.878;8.050;2024-02-16T00:38:51;97894.25;;;9.50;89.61
79671;BME280;69137;50.878;8.050;2024-02-16T00:41:21;97891.00;;;9.58;89.24
79671;BME280;69137;50.878;8.050;2024-02-16T00:43:47;97885.28;;;9.55;89.54
79671;BME280;69137;50.878;8.050;2024-02-16T00:46:12;97897.25;;;9.59;89.65
79671;BME280;69137;50.878;8.050;2024-02-16T00:48:37;97904.34;;;9.50;89.95
79671;BME280;69137;50.878;8.050;2024-02-16T00:51:03;97895.34;;;9.49;89.77
79671;BME280;69137;50.878;8.050;2024-02-16T00:53:28;97899.16;;;9.53;89.88
79671;BME280;69137;50.878;8.050;2024-02-16T00:55:53;97899.97;;;9.49;90.08
79671;BME280;69137;50.878;8.050;2024-02-16T00:58:19;97904.06;;;9.46;90.33
79671;BME280;69137;50.878;8.050;2024-02-16T01:00:45;97895.63;;;9.53;89.57
79671;BME280;69137;50.878;8.050;2024-02-16T01:03:10;97895.91;;;9.56;89.35
79671;BME280;69137;50.878;8.050;2024-02-16T01:05:35;97893.97;;;9.57;89.30
79671;BME280;69137;50.878;8.050;2024-02-16T01:08:00;97887.16;;;9.65;88.83
79671;BME280;69137;50.878;8.050;2024-02-16T01:10:26;97888.25;;;9.53;89.55
79671;BME280;69137;50.878;8.050;2024-02-16T01:12:51;97891.81;;;9.54;89.42
79671;BME280;69137;50.878;8.050;2024-02-16T01:15:18;97885.28;;;9.55;89.32
79671;BME280;69137;50.878;8.050;2024-02-16T01:17:43;97880.91;;;9.59;89.20
79671;BME280;69137;50.878;8.050;2024-02-16T01:20:08;97883.63;;;9.59;88.83
79671;BME280;69137;50.878;8.050;2024-02-16T01:22:38;97888.53;;;9.57;89.02
79671;BME280;69137;50.878;8.050;2024-02-16T01:25:03;97883.63;;;9.49;89.74
79671;BME280;69137;50.878;8.050;2024-02-16T01:27:29;97881.19;;;9.47;89.58
79671;BME280;69137;50.878;8.050;2024-02-16T01:29:54;97886.06;;;9.40;90.34
79671;BME280;69137;50.878;8.050;2024-02-16T01:32:19;97885.50;;;9.38;90.21
79671;BME280;69137;50.878;8.050;2024-02-16T01:34:45;97889.03;;;9.33;90.18
79671;BME280;69137;50.878;8.050;2024-02-16T01:37:12;97887.69;;;9.36;90.29
79671;BME280;69137;50.878;8.050;2024-02-16T01:39:37;97885.78;;;9.41;89.50
79671;BME280;69137;50.878;8.050;2024-02-16T01:42:03;97886.88;;;9.40;89.29
79671;BME280;69137;50.878;8.050;2024-02-16T01:44:28;97882.25;;;9.41;89.30
79671;BME280;69137;50.878;8.050;2024-02-16T01:46:53;97889.59;;;9.40;89.27
79671;BME280;69137;50.878;8.050;2024-02-16T01:49:19;97890.72;;;9.45;88.99
79671;BME280;69137;50.878;8.050;2024-02-16T01:51:44;97892.59;;;9.49;88.98
79671;BME280;69137;50.878;8.050;2024-02-16T01:54:11;97889.38;;;9.57;88.39
79671;BME280;69137;50.878;8.050;2024-02-16T01:56:37;97894.81;;;9.42;89.19
79671;BME280;69137;50.878;8.050;2024-02-16T01:59:02;97891.53;;;9.40;88.98
79671;BME280;69137;50.878;8.050;2024-02-16T02:01:27;97897.78;;;9.40;89.08
79671;BME280;69137;50.878;8.050;2024-02-16T02:03:53;97893.94;;;9.36;89.43
79671;BME280;69137;50.878;8.050;2024-02-16T02:06:18;97894.50;;;9.44;88.98
79671;BME280;69137;50.878;8.050;2024-02-16T02:08:43;97896.16;;;9.34;89.52
79671;BME280;69137;50.878;8.050;2024-02-16T02:11:09;97890.13;;;9.22;90.07
79671;BME280;69137;50.878;8.050;2024-02-16T02:13:34;97890.69;;;9.24;89.86
79671;BME280;69137;50.878;8.050;2024-02-16T02:16:00;97886.03;;;9.25;90.04
79671;BME280;69137;50.878;8.050;2024-02-16T02:18:25;97879.50;;;9.31;89.41
79671;BME280;69137;50.878;8.050;2024-02-16T02:20:51;97877.88;;;9.40;88.93
79671;BME280;69137;50.878;8.050;2024-02-16T02:23:16;97874.34;;;9.45;88.81
79671;BME280;69137;50.878;8.050;2024-02-16T02:25:42;97870.78;;;9.49;88.57
79671;BME280;69137;50.878;8.050;2024-02-16T02:28:07;97869.44;;;9.31;89.47
79671;BME280;69137;50.878;8.050;2024-02-16T02:30:33;97875.13;;;9.25;90.18
79671;BME280;69137;50.878;8.050;2024-02-16T02:32:58;97869.44;;;9.26;89.99
79671;BME280;69137;50.878;8.050;2024-02-16T02:35:23;97865.84;;;9.26;89.82
79671;BME280;69137;50.878;8.050;2024-02-16T02:37:49;97860.94;;;9.17;90.51
79671;BME280;69137;50.878;8.050;2024-02-16T02:40:14;97861.50;;;9.25;89.93
79671;BME280;69137;50.878;8.050;2024-02-16T02:42:39;97863.41;;;9.24;90.13
79671;BME280;69137;50.878;8.050;2024-02-16T02:45:05;97865.84;;;9.21;90.18
79671;BME280;69137;50.878;8.050;2024-02-16T02:47:31;97864.25;;;9.30;89.49
79671;BME280;69137;50.878;8.050;2024-02-16T02:49:56;97861.53;;;9.30;89.92
79671;BME280;69137;50.878;8.050;2024-02-16T02:52:21;97859.34;;;9.27;89.91
79671;BME280;69137;50.878;8.050;2024-02-16T02:54:46;97865.88;;;9.31;89.75
79671;BME280;69137;50.878;8.050;2024-02-16T02:57:13;97866.72;;;9.31;90.01
79671;BME280;69137;50.878;8.050;2024-02-16T02:59:38;97849.25;;;9.32;89.61
79671;BME280;69137;50.878;8.050;2024-02-16T03:02:04;97849.50;;;9.31;90.11
79671;BME280;69137;50.878;8.050;2024-02-16T03:04:29;97853.91;;;9.37;89.67
79671;BME280;69137;50.878;8.050;2024-02-16T03:06:54;97851.72;;;9.34;90.09
79671;BME280;69137;50.878;8.050;2024-02-16T03:09:19;97860.41;;;9.31;90.13
79671;BME280;69137;50.878;8.050;2024-02-16T03:11:45;97853.88;;;9.27;90.27
79671;BME280;69137;50.878;8.050;2024-02-16T03:14:10;97852.53;;;9.24;90.07
79671;BME280;69137;50.878;8.050;2024-02-16T03:16:35;97853.31;;;9.19;90.86
79671;BME280;69137;50.878;8.050;2024-02-16T03:19:01;97845.69;;;9.16;91.05
79671;BME280;69137;50.878;8.050;2024-02-16T03:21:26;97845.97;;;9.20;91.00
79671;BME280;69137;50.878;8.050;2024-02-16T03:23:52;97841.59;;;9.19;91.02
79671;BME280;69137;50.878;8.050;2024-02-16T03:26:19;97833.16;;;9.36;90.18
79671;BME280;69137;50.878;8.050;2024-02-16T03:28:48;97839.16;;;9.38;90.03
79671;BME280;69137;50.878;8.050;2024-02-16T03:31:17;97845.72;;;9.37;89.56
79671;BME280;69137;50.878;8.050;2024-02-16T03:33:43;97846.28;;;9.34;90.05
79671;BME280;69137;50.878;8.050;2024-02-16T03:36:09;97829.63;;;9.30;90.66
79671;BME280;69137;50.878;8.050;2024-02-16T03:38:34;97839.72;;;9.40;90.79
79671;BME280;69137;50.878;8.050;2024-02-16T03:41:00;97842.44;;;9.40;90.85
79671;BME280;69137;50.878;8.050;2024-02-16T03:43:25;97859.06;;;9.44;91.17
79671;BME280;69137;50.878;8.050;2024-02-16T03:45:51;97859.34;;;9.27;92.35
79671;BME280;69137;50.878;8.050;2024-02-16T03:48:16;97855.81;;;9.31;92.48
79671;BME280;69137;50.878;8.050;2024-02-16T03:50:42;97860.97;;;9.33;92.32
79671;BME280;69137;50.878;8.050;2024-02-16T03:53:07;97871.88;;;9.33;92.25
79671;BME280;69137;50.878;8.050;2024-02-16T03:55:32;97861.50;;;9.25;93.10
79671;BME280;69137;50.878;8.050;2024-02-16T03:58:01;97866.72;;;9.26;93.08
79671;BME280;69137;50.878;8.050;2024-02-16T04:00:27;97875.16;;;9.30;93.33
79671;BME280;69137;50.878;8.050;2024-02-16T04:02:53;97883.06;;;9.26;93.25
79671;BME280;69137;50.878;8.050;2024-02-16T04:05:18;97876.22;;;9.18;93.32
79671;BME280;69137;50.878;8.050;2024-02-16T04:07:43;97866.69;;;9.21;93.46
79671;BME280;69137;50.878;8.050;2024-02-16T04:10:09;97859.63;;;9.40;92.59
79671;BME280;69137;50.878;8.050;2024-02-16T04:12:34;97862.88;;;9.22;93.66
79671;BME280;69137;50.878;8.050;2024-02-16T04:14:59;97873.47;;;9.08;94.36
79671;BME280;69137;50.878;8.050;2024-02-16T04:17:25;97879.19;;;9.07;94.76
79671;BME280;69137;50.878;8.050;2024-02-16T04:19:50;97878.38;;;9.06;94.67
79671;BME280;69137;50.878;8.050;2024-02-16T04:22:15;97881.63;;;9.03;95.11
79671;BME280;69137;50.878;8.050;2024-02-16T04:24:41;97876.16;;;8.93;95.88
79671;BME280;69137;50.878;8.050;2024-02-16T04:27:06;97874.81;;;8.95;96.15
79671;BME280;69137;50.878;8.050;2024-02-16T04:29:32;97873.72;;;8.96;96.21
79671;BME280;69137;50.878;8.050;2024-02-16T04:31:57;97870.19;;;9.06;96.21
79671;BME280;69137;50.878;8.050;2024-02-16T04:34:22;97876.47;;;9.12;96.38
79671;BME280;69137;50.878;8.050;2024-02-16T04:36:47;97867.69;;;8.94;98.21
79671;BME280;69137;50.878;8.050;2024-02-16T04:39:13;97863.41;;;9.14;97.27
79671;BME280;69137;50.878;8.050;2024-02-16T04:41:40;97858.50;;;9.11;97.47
79671;BME280;69137;50.878;8.050;2024-02-16T04:44:05;97870.22;;;9.11;97.60
79671;BME280;69137;50.878;8.050;2024-02-16T04:46:30;97861.72;;;9.03;99.08
79671;BME280;69137;50.878;8.050;2024-02-16T04:48:56;97864.47;;;8.98;99.04
79671;BME280;69137;50.878;8.050;2024-02-16T04:51:21;97848.94;;;9.08;98.09
79671;BME280;69137;50.878;8.050;2024-02-16T04:53:47;97837.50;;;9.16;97.50
79671;BME280;69137;50.878;8.050;2024-02-16T04:56:13;97841.59;;;9.14;97.54
79671;BME280;69137;50.878;8.050;2024-02-16T04:58:42;97853.88;;;9.16;98.24
79671;BME280;69137;50.878;8.050;2024-02-16T05:01:07;97853.84;;;9.11;99.12
79671;BME280;69137;50.878;8.050;2024-02-16T05:03:33;97832.31;;;9.05;99.72
79671;BME280;69137;50.878;8.050;2024-02-16T05:06:00;97818.16;;;8.98;99.40
79671;BME280;69137;50.878;8.050;2024-02-16T05:08:25;97839.69;;;9.09;99.31
79671;BME280;69137;50.878;8.050;2024-02-16T05:10:50;97847.28;;;9.07;99.33
79671;BME280;69137;50.878;8.050;2024-02-16T05:13:16;97842.38;;;8.99;99.46
79671;BME280;69137;50.878;8.050;2024-02-16T05:15:41;97844.03;;;8.95;100.00
79671;BME280;69137;50.878;8.050;2024-02-16T05:18:06;97853.03;;;9.11;98.91
79671;BME280;69137;50.878;8.050;2024-02-16T05:20:32;97862.84;;;9.07;99.13
79671;BME280;69137;50.878;8.050;2024-02-16T05:22:57;97859.56;;;9.05;98.91
79671;BME280;69137;50.878;8.050;2024-02-16T05:25:22;97860.66;;;9.04;99.05
79671;BME280;69137;50.878;8.050;2024-02-16T05:27:48;97869.63;;;9.04;98.86
79671;BME280;69137;50.878;8.050;2024-02-16T05:30:13;97863.09;;;9.05;98.44
79671;BME280;69137;50.878;8.050;2024-02-16T05:32:40;97868.53;;;9.00;98.23
79671;BME280;69137;50.878;8.050;2024-02-16T05:35:07;97868.53;;;8.95;98.19
79671;BME280;69137;50.878;8.050;2024-02-16T05:37:47;97869.03;;;8.82;98.84
79671;BME280;69137;50.878;8.050;2024-02-16T05:40:15;97863.00;;;8.69;100.00
79671;BME280;69137;50.878;8.050;2024-02-16T05:42:54;97865.47;;;8.76;100.00
79671;BME280;69137;50.878;8.050;2024-02-16T05:45:23;97859.28;;;9.01;98.43
79671;BME280;69137;50.878;8.050;2024-02-16T05:47:49;97863.56;;;8.82;99.25
79671;BME280;69137;50.878;8.050;2024-02-16T05:50:15;97859.16;;;8.65;100.00
79671;BME280;69137;50.878;8.050;2024-02-16T05:52:41;97850.41;;;8.58;100.00
79671;BME280;69137;50.878;8.050;2024-02-16T05:55:08;97847.47;;;8.65;99.79
79671;BME280;69137;50.878;8.050;2024-02-16T05:57:34;97840.09;;;8.60;100.00
79671;BME280;69137;50.878;8.050;2024-02-16T06:00:00;97833.00;;;8.59;100.00
79671;BME280;69137;50.878;8.050;2024-02-16T06:02:25;97838.13;;;8.50;100.00
79671;BME280;69137;50.878;8.050;2024-02-16T06:04:51;97843.34;;;8.57;100.00
79671;BME280;69137;50.878;8.050;2024-02-16T06:07:16;97843.59;;;8.56;100.00
79671;BME280;69137;50.878;8.050;2024-02-16T06:09:42;97859.34;;;8.43;100.00
79671;BME280;69137;50.878;8.050;2024-02-16T06:12:07;97857.72;;;8.47;100.00
79671;BME280;69137;50.878;8.050;2024-02-16T06:14:34;97859.88;;;8.45;100.00
79671;BME280;69137;50.878;8.050;2024-02-16T06:16:59;97855.31;;;8.51;100.00
79671;BME280;69137;50.878;8.050;2024-02-16T06:19:26;97834.59;;;8.50;100.00
79671;BME280;69137;50.878;8.050;2024-02-16T06:21:53;97838.47;;;8.59;100.00
79671;BME280;69137;50.878;8.050;2024-02-16T06:24:20;97842.56;;;8.62;100.00
79671;BME280;69137;50.878;8.050;2024-02-16T06:26:45;97849.88;;;8.61;100.00
79671;BME280;69137;50.878;8.050;2024-02-16T06:29:10;97840.63;;;8.57;100.00
79671;BME280;69137;50.878;8.050;2024-02-16T06:31:36;97852.88;;;8.55;100.00
79671;BME280;69137;50.878;8.050;2024-02-16T06:34:01;97851.22;;;8.48;100.00
79671;BME280;69137;50.878;8.050;2024-02-16T06:36:26;97856.66;;;8.48;100.00
79671;BME280;69137;50.878;8.050;2024-02-16T06:38:51;97865.66;;;8.49;100.00
79671;BME280;69137;50.878;8.050;2024-02-16T06:41:17;97872.75;;;8.60;99.67
79671;BME280;69137;50.878;8.050;2024-02-16T06:43:42;97876.81;;;8.52;100.00
79671;BME280;69137;50.878;8.050;2024-02-16T06:46:08;97880.91;;;8.55;100.00
79671;BME280;69137;50.878;8.050;2024-02-16T06:48:33;97883.09;;;8.58;100.00
79671;BME280;69137;50.878;8.050;2024-02-16T06:50:58;97888.00;;;8.56;100.00
79671;BME280;69137;50.878;8.050;2024-02-16T06:53:24;97888.25;;;8.55;100.00
79671;BME280;69137;50.878;8.050;2024-02-16T06:55:49;97885.03;;;8.63;100.00
79671;BME280;69137;50.878;8.050;2024-02-16T06:58:15;97898.91;;;8.61;100.00
79671;BME280;69137;50.878;8.050;2024-02-16T07:00:40;97910.56;;;8.51;100.00
79671;BME280;69137;50.878;8.050;2024-02-16T07:03:07;97912.44;;;8.41;100.00
79671;BME280;69137;50.878;8.050;2024-02-16T07:05:32;97920.88;;;8.44;100.00
79671;BME280;69137;50.878;8.050;2024-02-16T07:07:58;97917.34;;;8.44;100.00
79671;BME280;69137;50.878;8.050;2024-02-16T07:10:23;97919.50;;;8.42;100.00
79671;BME280;69137;50.878;8.050;2024-02-16T07:12:49;97930.44;;;8.52;100.00
79671;BME280;69137;50.878;8.050;2024-02-16T07:15:14;97917.63;;;8.47;100.00
79671;BME280;69137;50.878;8.050;2024-02-16T07:17:40;97925.78;;;8.47;100.00
79671;BME280;69137;50.878;8.050;2024-02-16T07:20:05;97920.66;;;8.51;100.00
79671;BME280;69137;50.878;8.050;2024-02-16T07:22:31;97925.28;;;8.56;100.00
79671;BME280;69137;50.878;8.050;2024-02-16T07:24:57;97924.75;;;8.53;100.00
79671;BME280;69137;50.878;8.050;2024-02-16T07:27:25;97917.66;;;8.52;100.00
79671;BME280;69137;50.878;8.050;2024-02-16T07:29:50;97912.19;;;8.52;100.00
79671;BME280;69137;50.878;8.050;2024-02-16T07:32:15;97926.38;;;8.55;100.00
79671;BME280;69137;50.878;8.050;2024-02-16T07:34:45;97935.91;;;8.52;100.00
79671;BME280;69137;50.878;8.050;2024-02-16T07:37:10;97938.63;;;8.52;100.00
79671;BME280;69137;50.878;8.050;2024-02-16T07:39:36;97940.03;;;8.60;100.00
79671;BME280;69137;50.878;8.050;2024-02-16T07:42:01;97938.41;;;8.59;100.00
79671;BME280;69137;50.878;8.050;2024-02-16T07:44:28;97939.75;;;8.61;100.00
79671;BME280;69137;50.878;8.050;2024-02-16T07:46:53;97935.94;;;8.62;100.00
79671;BME280;69137;50.878;8.050;2024-02-16T07:49:18;97939.78;;;8.71;100.00
79671;BME280;69137;50.878;8.050;2024-02-16T07:51:44;97940.94;;;8.81;100.00
79671;BME280;69137;50.878;8.050;2024-02-16T07:54:09;97954.31;;;8.82;100.00
79671;BME280;69137;50.878;8.050;2024-02-16T07:56:34;97946.94;;;8.83;100.00
79671;BME280;69137;50.878;8.050;2024-02-16T07:59:00;97943.13;;;8.84;100.00
79671;BME280;69137;50.878;8.050;2024-02-16T08:01:25;97934.69;;;8.85;100.00
79671;BME280;69137;50.878;8.050;2024-02-16T08:03:50;97938.81;;;8.93;100.00
79671;BME280;69137;50.878;8.050;2024-02-16T08:06:16;97933.66;;;9.02;100.00
79671;BME280;69137;50.878;8.050;2024-02-16T08:08:46;97941.84;;;9.07;100.00
79671;BME280;69137;50.878;8.050;2024-02-16T08:11:12;97931.22;;;9.05;100.00
79671;BME280;69137;50.878;8.050;2024-02-16T08:13:37;97929.63;;;9.14;99.95
79671;BME280;69137;50.878;8.050;2024-02-16T08:16:02;97929.09;;;9.23;99.14
79671;BME280;69137;50.878;8.050;2024-02-16T08:18:32;97926.13;;;9.29;99.40
79671;BME280;69137;50.878;8.050;2024-02-16T08:20:57;97923.41;;;9.34;99.38
79671;BME280;69137;50.878;8.050;2024-02-16T08:23:22;97927.53;;;9.42;99.30
79671;BME280;69137;50.878;8.050;2024-02-16T08:25:48;97936.78;;;9.46;99.16
79671;BME280;69137;50.878;8.050;2024-02-16T08:28:13;97934.38;;;9.55;98.64
79671;BME280;69137;50.878;8.050;2024-02-16T08:30:39;97932.72;;;9.54;98.74
79671;BME280;69137;50.878;8.050;2024-02-16T08:33:06;97931.34;;;9.67;98.13
79671;BME280;69137;50.878;8.050;2024-02-16T08:35:32;97920.47;;;9.77;98.08
79671;BME280;69137;50.878;8.050;2024-02-16T08:37:57;97925.91;;;9.82;98.75
79671;BME280;69137;50.878;8.050;2024-02-16T08:40:22;97934.66;;;9.94;98.81
79671;BME280;69137;50.878;8.050;2024-02-16T08:42:48;97938.19;;;9.95;96.49
79671;BME280;69137;50.878;8.050;2024-02-16T08:45:14;97930.28;;;10.03;95.88
79671;BME280;69137;50.878;8.050;2024-02-16T08:47:42;97944.22;;;10.07;95.51
79671;BME280;69137;50.878;8.050;2024-02-16T08:50:08;97946.09;;;10.12;95.47
79671;BME280;69137;50.878;8.050;2024-02-16T08:52:34;97928.06;;;10.26;94.77
79671;BME280;69137;50.878;8.050;2024-02-16T08:54:59;97951.25;;;10.59;92.36
79671;BME280;69137;50.878;8.050;2024-02-16T08:57:24;97970.34;;;10.80;94.03
79671;BME280;69137;50.878;8.050;2024-02-16T08:59:50;97971.41;;;10.79;94.40
79671;BME280;69137;50.878;8.050;2024-02-16T09:02:15;97977.97;;;10.83;92.91
79671;BME280;69137;50.878;8.050;2024-02-16T09:04:40;97988.09;;;10.87;92.72
79671;BME280;69137;50.878;8.050;2024-02-16T09:07:05;97980.91;;;11.07;89.67
79671;BME280;69137;50.878;8.050;2024-02-16T09:09:31;97975.56;;;11.36;89.21
79671;BME280;69137;50.878;8.050;2024-02-16T09:11:56;97985.03;;;11.54;86.58
79671;BME280;69137;50.878;8.050;2024-02-16T09:14:22;97989.34;;;11.70;85.36
79671;BME280;69137;50.878;8.050;2024-02-16T09:16:51;97979.38;;;11.90;83.77
79671;BME280;69137;50.878;8.050;2024-02-16T09:19:19;97975.28;;;12.21;80.80
79671;BME280;69137;50.878;8.050;2024-02-16T09:21:45;97980.91;;;12.40;81.57
79671;BME280;69137;50.878;8.050;2024-02-16T09:24:10;97977.19;;;12.55;82.26
79671;BME280;69137;50.878;8.050;2024-02-16T09:26:39;97982.50;;;12.71;82.62
79671;BME280;69137;50.878;8.050;2024-02-16T09:29:05;97992.19;;;12.92;80.47
79671;BME280;69137;50.878;8.050;2024-02-16T09:31:31;97988.69;;;13.10;81.93
79671;BME280;69137;50.878;8.050;2024-02-16T09:33:56;98000.31;;;13.26;79.56
79671;BME280;69137;50.878;8.050;2024-02-16T09:36:22;98005.94;;;13.35;77.67
79671;BME280;69137;50.878;8.050;2024-02-16T09:38:48;98006.47;;;13.37;77.91
79671;BME280;69137;50.878;8.050;2024-02-16T09:41:13;98006.56;;;13.51;76.21
79671;BME280;69137;50.878;8.050;2024-02-16T09:43:41;98012.31;;;13.54;76.63
79671;BME280;69137;50.878;8.050;2024-02-16T09:46:08;98014.81;;;13.51;77.67
79671;BME280;69137;50.878;8.050;2024-02-16T09:48:33;98012.91;;;13.27;77.99
79671;BME280;69137;50.878;8.050;2024-02-16T09:50:59;98018.09;;;13.29;77.38
79671;BME280;69137;50.878;8.050;2024-02-16T09:53:27;98013.19;;;13.26;78.88
79671;BME280;69137;50.878;8.050;2024-02-16T09:55:53;98029.09;;;13.24;78.52
79671;BME280;69137;50.878;8.050;2024-02-16T09:58:18;98027.75;;;13.21;78.09
79671;BME280;69137;50.878;8.050;2024-02-16T10:00:51;98026.06;;;13.25;78.98
79671;BME280;69137;50.878;8.050;2024-02-16T10:03:30;98017.50;;;13.32;78.97
79671;BME280;69137;50.878;8.050;2024-02-16T10:06:10;98027.84;;;13.40;78.16
79671;BME280;69137;50.878;8.050;2024-02-16T10:08:52;98033.47;;;13.49;78.96
79671;BME280;69137;50.878;8.050;2024-02-16T10:11:19;98029.34;;;13.51;79.70
79671;BME280;69137;50.878;8.050;2024-02-16T10:13:57;98049.88;;;13.54;79.23
79671;BME280;69137;50.878;8.050;2024-02-16T10:16:22;98045.44;;;13.58;78.45
79671;BME280;69137;50.878;8.050;2024-02-16T10:18:48;98047.72;;;13.51;80.86
79671;BME280;69137;50.878;8.050;2024-02-16T10:21:13;98047.44;;;13.52;80.92
79671;BME280;69137;50.878;8.050;2024-02-16T10:23:38;98043.16;;;13.65;79.86
79671;BME280;69137;50.878;8.050;2024-02-16T10:26:04;98045.03;;;13.70;82.38
79671;BME280;69137;50.878;8.050;2024-02-16T10:28:29;98037.84;;;13.93;79.04
79671;BME280;69137;50.878;8.050;2024-02-16T10:30:59;98032.47;;;13.64;77.76
79671;BME280;69137;50.878;8.050;2024-02-16T10:33:31;98044.25;;;13.64;79.32
79671;BME280;69137;50.878;8.050;2024-02-16T10:35:57;98051.56;;;13.74;80.79
79671;BME280;69137;50.878;8.050;2024-02-16T10:38:23;98051.06;;;13.91;79.34
79671;BME280;69137;50.878;8.050;2024-02-16T10:40:50;98043.78;;;13.81;79.34
79671;BME280;69137;50.878;8.050;2024-02-16T10:43:17;98057.84;;;13.74;81.86
79671;BME280;69137;50.878;8.050;2024-02-16T10:45:43;98064.25;;;13.70;78.16
79671;BME280;69137;50.878;8.050;2024-02-16T10:48:10;98067.16;;;13.97;78.96
79671;BME280;69137;50.878;8.050;2024-02-16T10:50:36;98064.72;;;13.96;77.27
79671;BME280;69137;50.878;8.050;2024-02-16T10:53:09;98063.47;;;14.07;78.67
79671;BME280;69137;50.878;8.050;2024-02-16T10:55:37;98065.78;;;14.19;78.83
79671;BME280;69137;50.878;8.050;2024-02-16T10:58:03;98059.69;;;14.22;78.03
79671;BME280;69137;50.878;8.050;2024-02-16T11:00:28;98070.66;;;14.22;78.50
79671;BME280;69137;50.878;8.050;2024-02-16T11:02:57;98064.03;;;14.23;76.96
79671;BME280;69137;50.878;8.050;2024-02-16T11:05:35;98060.34;;;14.14;78.02
79671;BME280;69137;50.878;8.050;2024-02-16T11:08:04;98060.03;;;13.96;77.13
79671;BME280;69137;50.878;8.050;2024-02-16T11:10:30;98044.53;;;13.87;78.20
79671;BME280;69137;50.878;8.050;2024-02-16T11:13:01;98043.63;;;13.91;76.44
79671;BME280;69137;50.878;8.050;2024-02-16T11:15:28;98052.00;;;13.81;78.01
79671;BME280;69137;50.878;8.050;2024-02-16T11:18:00;98054.09;;;13.70;78.04
79671;BME280;69137;50.878;8.050;2024-02-16T11:20:26;98056.84;;;13.70;77.90
79671;BME280;69137;50.878;8.050;2024-02-16T11:22:51;98054.50;;;13.59;78.86
79671;BME280;69137;50.878;8.050;2024-02-16T11:25:18;98050.78;;;13.49;79.58
79671;BME280;69137;50.878;8.050;2024-02-16T11:27:43;98060.06;;;13.53;78.81
79671;BME280;69137;50.878;8.050;2024-02-16T11:30:11;98071.28;;;13.57;80.65
79671;BME280;69137;50.878;8.050;2024-02-16T11:32:37;98079.72;;;13.61;78.26
79671;BME280;69137;50.878;8.050;2024-02-16T11:35:08;98079.19;;;13.59;78.16
79671;BME280;69137;50.878;8.050;2024-02-16T11:37:33;98077.91;;;13.51;77.82
79671;BME280;69137;50.878;8.050;2024-02-16T11:39:59;98066.59;;;13.58;78.32
79671;BME280;69137;50.878;8.050;2024-02-16T11:42:24;98071.44;;;13.66;78.61
79671;BME280;69137;50.878;8.050;2024-02-16T11:44:52;98070.72;;;13.79;79.33
79671;BME280;69137;50.878;8.050;2024-02-16T11:47:22;98076.50;;;13.77;77.98
79671;BME280;69137;50.878;8.050;2024-02-16T11:50:01;98070.41;;;13.81;77.93
79671;BME280;69137;50.878;8.050;2024-02-16T11:52:26;98091.34;;;13.95;78.44
79671;BME280;69137;50.878;8.050;2024-02-16T11:54:51;98090.25;;;13.96;77.78
79671;BME280;69137;50.878;8.050;2024-02-16T11:57:17;98077.47;;;14.06;76.70
79671;BME280;69137;50.878;8.050;2024-02-16T11:59:42;98076.53;;;13.96;77.98
79671;BME280;69137;50.878;8.050;2024-02-16T12:02:17;98079.34;;;13.91;78.78
79671;BME280;69137;50.878;8.050;2024-02-16T12:04:43;98099.50;;;13.82;79.11
79671;BME280;69137;50.878;8.050;2024-02-16T12:07:12;98087.50;;;13.77;79.30
79671;BME280;69137;50.878;8.050;2024-02-16T12:09:37;98088.91;;;13.75;80.23
79671;BME280;69137;50.878;8.050;2024-02-16T12:12:04;98089.31;;;13.63;80.60
79671;BME280;69137;50.878;8.050;2024-02-16T12:14:31;98088.50;;;13.63;79.89
79671;BME280;69137;50.878;8.050;2024-02-16T12:16:57;98094.19;;;13.66;80.41
79671;BME280;69137;50.878;8.050;2024-02-16T12:19:23;98083.66;;;13.54;80.82
79671;BME280;69137;50.878;8.050;2024-02-16T12:21:52;98082.81;;;13.54;81.87
79671;BME280;69137;50.878;8.050;2024-02-16T12:24:18;98065.78;;;13.57;80.74
79671;BME280;69137;50.878;8.050;2024-02-16T12:26:44;98070.38;;;13.62;81.50
79671;BME280;69137;50.878;8.050;2024-02-16T12:29:09;98075.25;;;13.70;83.33
79671;BME280;69137;50.878;8.050;2024-02-16T12:31:38;98066.41;;;13.73;82.36
79671;BME280;69137;50.878;8.050;2024-02-16T12:34:03;98073.66;;;13.64;82.00
79671;BME280;69137;50.878;8.050;2024-02-16T12:36:30;98070.38;;;13.62;83.64
79671;BME280;69137;50.878;8.050;2024-02-16T12:38:55;98069.94;;;13.54;85.94
79671;BME280;69137;50.878;8.050;2024-02-16T12:41:21;98067.53;;;13.48;85.66
79671;BME280;69137;50.878;8.050;2024-02-16T12:43:46;98063.91;;;13.52;85.46
79671;BME280;69137;50.878;8.050;2024-02-16T12:46:11;98059.31;;;13.48;87.03
79671;BME280;69137;50.878;8.050;2024-02-16T12:48:37;98057.63;;;13.52;88.02
79671;BME280;69137;50.878;8.050;2024-02-16T12:51:02;98059.03;;;13.49;88.03
79671;BME280;69137;50.878;8.050;2024-02-16T12:53:27;98060.69;;;13.45;87.65
79671;BME280;69137;50.878;8.050;2024-02-16T12:55:56;98071.50;;;13.37;89.08
79671;BME280;69137;50.878;8.050;2024-02-16T12:58:21;98070.59;;;13.46;88.27